Terminal Aerodrome Forecast
Issued by NWS Upton, NY

Home | Current Version | Previous Version | Text Only | Print | Product List | Glossary On
Versions: 1 2 3 4 5 6 7 8 9 10 11 12 13 14 15 16 17 18 19 20 21 22 23 24 25 26 27
000
FTUS41 KOKX 261100
TAFEWR
TAF
KEWR 261134Z 2612/2718 22006KT P6SM SCT040 BKN100
     FM261400 23009KT P6SM SCT040 BKN100
     FM261700 21012KT P6SM SCT040 BKN100
     FM270100 20007KT P6SM BKN040 BKN100 PROB30 2707/2712 5SM SHRA
      BR
     FM271200 22010KT P6SM FEW020 BKN040 PROB30 2712/2718 5SM SHRA
      BR=

USA.gov is the U.S. government's official web portal to all federal, state and local government web resources and services.